Time;durP1;ratioP1;P1;durP2;ratioP2;P2;SDS_P1;SDS_P2;PMS_P1;PMS_P2;Temp;Humidity;BMP_temperature;BMP_pressure;BME280_temperature;BME280_humidity;BME280_pressure;Samples;Min_cycle;Max_cycle;Signal;HPM_P1;HPM_P2
2021/06/10 00:01:24;;;;;;;9.20;8.10;;;17.80;74.20;;;;;;5085848;28;20062;-39
2021/06/10 00:03:50;;;;;;;9.93;8.48;;;17.60;74.80;;;;;;5084703;28;20375;-40
2021/06/10 00:06:16;;;;;;;9.75;8.23;;;17.50;75.40;;;;;;5085774;28;20338;-40
2021/06/10 00:08:41;;;;;;;11.38;8.32;;;17.60;75.00;;;;;;5085712;28;20029;-40
2021/06/10 00:11:07;;;;;;;10.98;8.60;;;17.70;74.30;;;;;;5086070;28;20033;-40
2021/06/10 00:13:32;;;;;;;12.32;9.52;;;17.70;74.40;;;;;;5085825;28;20048;-39
2021/06/10 00:15:58;;;;;;;10.02;8.57;;;17.70;74.00;;;;;;5085923;28;20216;-40
2021/06/10 00:18:23;;;;;;;11.20;8.65;;;17.60;74.50;;;;;;5085491;28;20033;-39
2021/06/10 00:20:49;;;;;;;10.85;8.48;;;17.50;74.90;;;;;;5086265;28;20089;-40
2021/06/10 00:23:15;;;;;;;10.68;8.63;;;17.60;74.80;;;;;;5085666;28;20060;-39
2021/06/10 00:25:40;;;;;;;9.90;8.45;;;17.50;74.80;;;;;;5085789;28;20323;-39
2021/06/10 00:28:06;;;;;;;9.85;8.50;;;17.40;75.10;;;;;;5084542;28;20203;-39
2021/06/10 00:30:33;;;;;;;10.15;7.95;;;17.50;74.90;;;;;;5085300;28;20323;-39
2021/06/10 00:32:58;;;;;;;10.45;8.98;;;17.40;75.10;;;;;;5086011;28;20048;-40
2021/06/10 00:35:24;;;;;;;11.73;8.55;;;17.30;75.40;;;;;;5085683;28;20040;-40
2021/06/10 00:37:50;;;;;;;9.25;8.07;;;17.30;75.60;;;;;;5085535;28;20055;-40
2021/06/10 00:40:16;;;;;;;10.43;8.30;;;17.30;75.70;;;;;;5085464;28;20275;-40
2021/06/10 00:42:42;;;;;;;12.68;9.02;;;17.10;75.90;;;;;;5084975;28;20036;-39
2021/06/10 00:45:09;;;;;;;11.15;8.48;;;17.10;76.40;;;;;;5085726;28;20029;-40
2021/06/10 00:47:34;;;;;;;9.73;8.48;;;17.10;76.30;;;;;;5085156;28;20205;-39
2021/06/10 00:50:00;;;;;;;11.52;8.38;;;17.20;76.00;;;;;;5084912;28;20036;-40
2021/06/10 00:52:25;;;;;;;8.88;7.90;;;17.10;75.90;;;;;;5084864;28;20032;-40
2021/06/10 00:54:51;;;;;;;10.50;9.07;;;17.20;75.60;;;;;;5083729;28;20032;-39
2021/06/10 00:57:16;;;;;;;8.98;8.05;;;17.10;76.00;;;;;;5083142;28;20028;-40
2021/06/10 00:59:42;;;;;;;9.63;8.45;;;17.10;75.90;;;;;;5085721;28;20204;-40
2021/06/10 01:02:07;;;;;;;9.20;7.90;;;17.10;75.60;;;;;;5083962;28;20207;-39
2021/06/10 01:04:33;;;;;;;10.52;8.18;;;17.30;75.10;;;;;;5084492;28;20359;-39
2021/06/10 01:07:23;;;;;;;10.32;8.23;;;17.30;74.70;;;;;;5084617;28;20098;-39
2021/06/10 01:09:55;;;;;;;10.43;7.60;;;17.30;74.90;;;;;;5084528;28;20033;-40
2021/06/10 01:12:32;;;;;;;8.80;7.90;;;17.10;74.80;;;;;;5083439;28;20036;-39
2021/06/10 01:15:05;;;;;;;8.80;7.90;;;16.90;75.60;;;;;;5084899;28;20028;-40
2021/06/10 01:17:32;;;;;;;11.38;8.43;;;16.90;75.70;;;;;;5084884;28;20061;-40
2021/06/10 01:20:05;;;;;;;10.73;8.38;;;16.80;76.00;;;;;;5083288;28;20074;-40
2021/06/10 01:22:57;;;;;;;10.27;9.18;;;16.70;76.30;;;;;;5084306;28;20033;-40
2021/06/10 01:25:34;;;;;;;9.50;8.48;;;17.00;75.60;;;;;;5075388;28;20231;-39
2021/06/10 01:28:21;;;;;;;9.85;8.25;;;16.80;75.90;;;;;;5084559;28;20323;-40
2021/06/10 01:30:53;;;;;;;10.27;7.80;;;16.90;75.50;;;;;;5083658;28;20367;-40
2021/06/10 01:33:20;;;;;;;9.32;8.32;;;16.80;75.70;;;;;;5084282;28;20215;-40
2021/06/10 01:35:52;;;;;;;10.63;8.48;;;16.80;76.00;;;;;;5083748;28;20242;-39
2021/06/10 01:38:18;;;;;;;10.05;8.70;;;16.90;75.40;;;;;;5083323;28;20041;-39
2021/06/10 01:40:44;;;;;;;9.45;8.27;;;16.90;75.40;;;;;;5083145;28;20040;-39
2021/06/10 01:43:09;;;;;;;9.90;8.90;;;16.80;75.40;;;;;;5082887;28;20033;-40
2021/06/10 01:45:35;;;;;;;10.07;8.20;;;16.60;75.70;;;;;;5083960;28;20091;-40
2021/06/10 01:48:01;;;;;;;9.70;8.30;;;16.40;76.50;;;;;;5084262;28;20331;-40
2021/06/10 01:50:26;;;;;;;10.77;8.80;;;16.40;77.10;;;;;;5083297;28;20211;-40
2021/06/10 01:52:52;;;;;;;10.05;8.90;;;16.30;77.40;;;;;;5083065;28;20036;-40
2021/06/10 01:55:20;;;;;;;11.73;8.85;;;16.30;77.20;;;;;;5084246;28;20028;-39
2021/06/10 01:57:46;;;;;;;10.07;8.63;;;16.30;76.80;;;;;;5066261;28;20036;-40
2021/06/10 02:00:12;;;;;;;11.38;8.93;;;16.30;76.50;;;;;;5083249;28;20056;-40
2021/06/10 02:02:38;;;;;;;9.88;8.48;;;16.20;76.80;;;;;;5084095;28;20063;-40
2021/06/10 02:05:08;;;;;;;10.63;9.07;;;16.30;76.60;;;;;;5083038;28;20029;-39
2021/06/10 02:07:38;;;;;;;9.63;8.27;;;16.30;76.90;;;;;;5083901;28;20028;-39
2021/06/10 02:10:05;;;;;;;12.20;8.73;;;16.50;76.50;;;;;;5082555;28;20044;-39
2021/06/10 02:12:32;;;;;;;12.13;9.85;;;16.60;76.00;;;;;;5083718;28;20304;-39
2021/06/10 02:14:59;;;;;;;9.07;8.02;;;16.60;75.90;;;;;;5084142;28;20069;-40
2021/06/10 02:17:25;;;;;;;10.60;8.50;;;16.40;76.10;;;;;;5084142;28;20048;-39
2021/06/10 02:19:50;;;;;;;11.30;8.30;;;16.50;76.00;;;;;;5083668;28;20078;-39
2021/06/10 02:22:17;;;;;;;10.80;8.60;;;16.40;76.10;;;;;;5083773;28;20029;-39
2021/06/10 02:24:42;;;;;;;9.50;8.50;;;16.40;76.30;;;;;;5082469;28;20263;-39
2021/06/10 02:27:08;;;;;;;10.65;8.93;;;16.40;76.20;;;;;;5083234;28;20074;-39
2021/06/10 02:29:33;;;;;;;9.98;8.45;;;16.40;76.20;;;;;;5082370;28;20032;-39
2021/06/10 02:31:59;;;;;;;11.02;8.73;;;16.40;75.80;;;;;;5083834;28;20043;-39
2021/06/10 02:34:24;;;;;;;10.13;8.63;;;16.50;75.70;;;;;;5082649;28;20040;-39
2021/06/10 02:36:50;;;;;;;10.55;8.85;;;16.40;75.70;;;;;;5083551;28;20036;-39
2021/06/10 02:39:16;;;;;;;10.02;9.00;;;16.50;75.80;;;;;;5082340;28;20042;-39
2021/06/10 02:41:48;;;;;;;10.20;8.93;;;16.50;75.40;;;;;;5082987;28;20195;-39
2021/06/10 02:44:14;;;;;;;19.85;9.10;;;16.40;75.70;;;;;;5082171;28;20040;-39
2021/06/10 02:46:41;;;;;;;10.40;8.40;;;16.50;75.80;;;;;;5082624;28;20037;-39
2021/06/10 02:49:07;;;;;;;11.75;9.02;;;16.50;75.80;;;;;;5083867;28;20028;-39
2021/06/10 02:51:32;;;;;;;9.85;8.65;;;16.50;75.60;;;;;;5082242;28;20092;-39
2021/06/10 02:53:59;;;;;;;9.75;8.73;;;16.50;75.80;;;;;;5082894;28;20036;-39
2021/06/10 02:56:26;;;;;;;12.10;9.75;;;16.40;75.90;;;;;;5082636;28;20033;-39
2021/06/10 02:58:52;;;;;;;14.75;9.30;;;16.30;76.50;;;;;;5082425;28;20040;-39
2021/06/10 03:01:17;;;;;;;13.75;9.57;;;16.40;77.00;;;;;;5082327;28;20393;-40
2021/06/10 03:03:43;;;;;;;10.45;8.88;;;16.30;77.50;;;;;;5081781;28;20074;-39
2021/06/10 03:06:09;;;;;;;11.45;9.40;;;16.60;76.80;;;;;;5083118;28;20073;-39
2021/06/10 03:08:34;;;;;;;13.20;9.40;;;16.60;76.20;;;;;;5082506;28;20365;-40
2021/06/10 03:11:01;;;;;;;11.25;9.40;;;16.50;76.90;;;;;;5082296;28;20030;-39
2021/06/10 03:13:27;;;;;;;11.20;9.07;;;16.60;76.30;;;;;;5081754;28;20044;-39
2021/06/10 03:15:53;;;;;;;10.38;9.18;;;16.70;75.60;;;;;;5082111;28;20036;-39
2021/06/10 03:18:18;;;;;;;16.88;9.48;;;16.80;75.30;;;;;;5081952;28;20368;-40
2021/06/10 03:20:45;;;;;;;12.10;9.82;;;16.70;75.50;;;;;;5085070;28;20028;-39
2021/06/10 03:23:11;;;;;;;12.73;8.57;;;16.50;76.60;;;;;;5085844;28;20039;-39
2021/06/10 03:25:37;;;;;;;9.55;8.30;;;16.70;76.70;;;;;;5085477;28;20051;-39
2021/06/10 03:28:04;;;;;;;10.98;8.65;;;16.80;76.10;;;;;;5085389;28;20032;-39
2021/06/10 03:30:29;;;;;;;9.55;8.18;;;16.80;76.60;;;;;;5086547;28;20070;-39
2021/06/10 03:32:55;;;;;;;11.38;8.60;;;16.90;76.20;;;;;;5086889;28;20024;-40
2021/06/10 03:35:20;;;;;;;10.82;9.23;;;16.90;75.50;;;;;;5085854;28;20285;-39
2021/06/10 03:37:46;;;;;;;12.30;8.88;;;17.00;75.50;;;;;;5085265;28;20029;-39
2021/06/10 03:40:12;;;;;;;10.75;8.60;;;17.00;76.00;;;;;;5085292;28;20085;-39
2021/06/10 03:42:38;;;;;;;10.05;7.97;;;17.00;75.70;;;;;;5086503;28;20077;-39
2021/06/10 03:45:04;;;;;;;10.30;8.48;;;17.10;75.40;;;;;;5086263;28;20291;-39
2021/06/10 03:47:30;;;;;;;10.05;8.02;;;17.00;75.30;;;;;;5085175;28;20092;-39
2021/06/10 03:49:55;;;;;;;11.63;8.45;;;17.00;76.20;;;;;;5086604;28;20216;-39
2021/06/10 03:52:25;;;;;;;11.40;8.40;;;17.00;75.50;;;;;;5086513;28;20045;-39
2021/06/10 03:54:50;;;;;;;14.25;8.60;;;17.00;75.70;;;;;;5085204;28;20025;-39
2021/06/10 03:57:16;;;;;;;9.23;7.70;;;17.10;75.40;;;;;;5086307;28;20059;-40
2021/06/10 03:59:41;;;;;;;11.85;7.95;;;17.10;75.30;;;;;;5086410;28;20021;-39
2021/06/10 04:02:07;;;;;;;11.30;8.13;;;17.10;75.40;;;;;;5084640;28;20350;-39
2021/06/10 04:04:32;;;;;;;11.77;7.82;;;17.20;75.40;;;;;;5085753;28;20048;-39
2021/06/10 04:06:58;;;;;;;11.07;8.38;;;17.20;75.80;;;;;;5085878;28;20270;-39
2021/06/10 04:09:24;;;;;;;11.00;8.43;;;17.10;75.90;;;;;;5086058;28;20351;-39
2021/06/10 04:11:49;;;;;;;10.57;8.35;;;17.20;75.20;;;;;;5068261;28;20033;-39
2021/06/10 04:14:15;;;;;;;12.13;8.52;;;17.20;75.30;;;;;;5086038;28;20048;-40
2021/06/10 04:16:40;;;;;;;10.23;8.02;;;17.30;75.20;;;;;;5086201;28;20043;-39
2021/06/10 04:19:06;;;;;;;9.05;8.15;;;17.30;75.10;;;;;;5085697;28;20029;-40
2021/06/10 04:21:32;;;;;;;9.98;7.90;;;17.30;74.90;;;;;;5085831;28;20047;-39
2021/06/10 04:23:57;;;;;;;10.63;8.55;;;17.30;74.70;;;;;;5085257;28;20348;-39
2021/06/10 04:26:23;;;;;;;10.07;8.32;;;17.40;74.50;;;;;;5085871;28;20033;-40
2021/06/10 04:28:48;;;;;;;9.35;8.25;;;17.40;74.60;;;;;;5084486;28;20048;-39
2021/06/10 04:31:15;;;;;;;12.85;8.25;;;17.30;75.00;;;;;;5084301;28;20024;-39
2021/06/10 04:33:41;;;;;;;9.75;8.70;;;17.30;74.60;;;;;;5085464;28;20035;-39
2021/06/10 04:36:07;;;;;;;12.10;8.65;;;17.40;74.60;;;;;;5085647;28;20028;-39
2021/06/10 04:38:32;;;;;;;10.10;7.85;;;17.40;74.50;;;;;;5085099;28;20096;-39
2021/06/10 04:40:58;;;;;;;9.00;7.95;;;17.30;74.50;;;;;;5085501;28;20031;-39
2021/06/10 04:43:24;;;;;;;11.38;7.53;;;17.40;74.60;;;;;;5085205;28;20040;-39
2021/06/10 04:45:49;;;;;;;10.48;7.82;;;17.40;74.30;;;;;;5084743;28;20036;-39
2021/06/10 04:48:15;;;;;;;9.98;8.10;;;17.40;74.30;;;;;;5085184;28;20419;-40
2021/06/10 04:50:41;;;;;;;9.25;8.00;;;17.40;74.40;;;;;;5085338;28;20224;-39
2021/06/10 04:53:07;;;;;;;9.52;8.13;;;17.40;74.80;;;;;;5085163;28;20040;-40
2021/06/10 04:55:33;;;;;;;9.13;7.32;;;17.40;75.10;;;;;;5084094;28;20054;-39
2021/06/10 04:57:59;;;;;;;8.75;7.45;;;17.50;74.90;;;;;;5084909;28;20053;-40
2021/06/10 05:00:24;;;;;;;10.60;7.40;;;17.50;74.50;;;;;;5085393;28;20028;-40
2021/06/10 05:02:50;;;;;;;10.15;7.50;;;17.60;74.40;;;;;;5084999;28;20328;-40
2021/06/10 05:05:15;;;;;;;10.85;7.47;;;17.50;74.50;;;;;;5085521;28;20335;-39
2021/06/10 05:07:41;;;;;;;8.63;7.72;;;17.50;74.20;;;;;;5083638;28;20043;-39
2021/06/10 05:10:07;;;;;;;11.38;7.68;;;17.60;73.90;;;;;;5084609;28;20024;-39
2021/06/10 05:12:33;;;;;;;11.18;8.02;;;17.60;73.80;;;;;;5084854;28;20395;-39
2021/06/10 05:14:58;;;;;;;10.43;8.48;;;17.60;74.00;;;;;;5084789;28;20036;-40
2021/06/10 05:17:24;;;;;;;9.23;8.00;;;17.60;74.00;;;;;;5084986;28;20036;-39
2021/06/10 05:19:50;;;;;;;10.02;8.20;;;17.50;74.20;;;;;;5085109;28;20048;-39
2021/06/10 05:22:15;;;;;;;8.98;7.75;;;17.60;74.40;;;;;;5084367;28;20259;-39
2021/06/10 05:24:41;;;;;;;9.82;8.43;;;17.70;74.10;;;;;;5084732;28;20040;-39
2021/06/10 05:27:09;;;;;;;8.82;7.93;;;17.80;74.20;;;;;;5084992;28;20036;-39
2021/06/10 05:29:35;;;;;;;10.10;8.13;;;17.80;73.50;;;;;;5084366;28;20044;-40
2021/06/10 05:32:01;;;;;;;11.63;7.93;;;17.90;73.60;;;;;;5084525;28;20043;-39
2021/06/10 05:34:26;;;;;;;9.07;7.75;;;18.00;73.20;;;;;;5083956;28;20340;-40
2021/06/10 05:36:52;;;;;;;11.20;8.57;;;18.00;72.90;;;;;;5084186;28;20375;-39
2021/06/10 05:39:18;;;;;;;12.77;9.40;;;18.00;73.10;;;;;;5084155;28;20028;-40
2021/06/10 05:41:44;;;;;;;9.55;8.38;;;18.10;73.10;;;;;;5084339;28;20016;-40
2021/06/10 05:44:10;;;;;;;13.60;8.40;;;18.10;73.00;;;;;;5084021;28;20028;-40
2021/06/10 05:46:35;;;;;;;11.25;8.30;;;17.90;72.70;;;;;;5084095;28;20036;-39
2021/06/10 05:49:01;;;;;;;12.27;8.63;;;18.10;72.80;;;;;;5083892;28;20217;-39
2021/06/10 05:51:26;;;;;;;9.40;8.40;;;18.10;72.80;;;;;;5083757;28;20083;-40
2021/06/10 05:53:52;;;;;;;9.68;8.60;;;18.10;73.40;;;;;;5084495;28;20028;-40
2021/06/10 05:56:17;;;;;;;9.55;8.05;;;18.20;72.90;;;;;;5084076;28;20040;-40
2021/06/10 05:58:43;;;;;;;13.25;8.88;;;18.30;72.50;;;;;;5084113;28;20036;-39
2021/06/10 06:01:08;;;;;;;14.20;8.75;;;18.30;73.00;;;;;;5083949;28;20088;-40
2021/06/10 06:03:34;;;;;;;10.60;8.20;;;18.40;73.10;;;;;;5084046;28;20138;-39
2021/06/10 06:06:00;;;;;;;12.20;8.40;;;18.50;72.70;;;;;;5084434;28;20055;-39
2021/06/10 06:08:25;;;;;;;8.93;7.90;;;18.50;71.70;;;;;;5084243;28;20040;-39
2021/06/10 06:10:52;;;;;;;12.43;8.52;;;18.50;71.80;;;;;;5084103;28;20328;-39
2021/06/10 06:13:24;;;;;;;12.93;9.15;;;18.60;71.70;;;;;;5083779;28;20037;-39
2021/06/10 06:15:50;;;;;;;13.35;8.60;;;18.60;71.60;;;;;;5083525;28;20328;-39
2021/06/10 06:18:18;;;;;;;13.15;9.00;;;18.60;71.30;;;;;;5082045;28;20036;-40
2021/06/10 06:20:44;;;;;;;11.98;8.70;;;18.50;71.00;;;;;;5082990;28;20051;-39
2021/06/10 06:23:09;;;;;;;10.65;8.88;;;18.60;71.10;;;;;;5082555;28;20028;-39
2021/06/10 06:25:35;;;;;;;10.18;8.60;;;18.50;71.50;;;;;;5083225;28;20041;-40
2021/06/10 06:28:00;;;;;;;13.32;8.40;;;18.60;71.20;;;;;;5083650;28;20044;-40
2021/06/10 06:30:26;;;;;;;11.55;8.90;;;18.70;71.10;;;;;;5082323;28;20071;-39
2021/06/10 06:32:51;;;;;;;10.73;9.15;;;18.60;71.10;;;;;;5083826;28;20020;-39
2021/06/10 06:35:17;;;;;;;13.13;8.98;;;18.60;71.30;;;;;;5083833;28;20052;-39
2021/06/10 06:37:42;;;;;;;12.63;9.13;;;18.60;71.60;;;;;;5083351;28;20033;-39
2021/06/10 06:40:08;;;;;;;10.45;8.60;;;18.60;71.60;;;;;;5083237;28;20029;-39
2021/06/10 06:42:34;;;;;;;9.95;8.90;;;18.60;71.30;;;;;;5082117;28;20070;-40
2021/06/10 06:45:00;;;;;;;14.38;9.10;;;18.60;71.40;;;;;;5084211;28;20049;-40
2021/06/10 06:47:25;;;;;;;16.13;8.95;;;18.60;72.20;;;;;;5083714;28;20037;-40
2021/06/10 06:49:51;;;;;;;10.77;8.73;;;18.50;71.80;;;;;;5083621;28;20095;-39
2021/06/10 06:52:16;;;;;;;11.68;8.75;;;18.50;72.80;;;;;;5083350;28;20208;-39
2021/06/10 06:54:43;;;;;;;18.90;9.02;;;18.50;72.40;;;;;;5083560;28;20033;-40
2021/06/10 06:57:09;;;;;;;13.23;8.90;;;18.70;72.70;;;;;;5087036;28;20055;-39
2021/06/10 06:59:34;;;;;;;10.35;8.80;;;18.80;71.90;;;;;;5085718;28;20036;-39
2021/06/10 07:02:00;;;;;;;10.65;8.80;;;18.90;72.00;;;;;;5086983;28;20043;-40
2021/06/10 07:04:25;;;;;;;11.05;9.15;;;19.00;71.40;;;;;;5087123;28;20094;-40
2021/06/10 07:06:53;;;;;;;10.65;8.82;;;19.00;71.40;;;;;;5087122;28;20092;-40
2021/06/10 07:09:19;;;;;;;12.00;10.00;;;19.10;71.40;;;;;;5085577;28;20056;-39
2021/06/10 07:11:45;;;;;;;13.43;10.70;;;19.30;71.80;;;;;;5086553;28;20082;-40
2021/06/10 07:14:10;;;;;;;16.98;11.60;;;19.40;70.80;;;;;;5087340;28;20100;-40
2021/06/10 07:16:36;;;;;;;15.73;11.95;;;19.60;69.60;;;;;;5086990;28;20062;-40
2021/06/10 07:19:02;;;;;;;15.63;11.23;;;19.90;69.20;;;;;;5086789;28;20324;-40
2021/06/10 07:21:43;;;;;;;15.77;12.13;;;20.00;68.20;;;;;;5086865;28;20027;-40
2021/06/10 07:24:09;;;;;;;14.65;12.05;;;20.20;67.40;;;;;;5069134;28;20036;-40
2021/06/10 07:26:34;;;;;;;13.23;11.18;;;20.30;67.30;;;;;;5086479;28;20049;-40
2021/06/10 07:29:00;;;;;;;15.05;11.50;;;20.40;66.60;;;;;;5086532;28;20205;-40
2021/06/10 07:31:25;;;;;;;13.25;11.38;;;20.50;65.70;;;;;;5085661;28;20032;-40
2021/06/10 07:33:51;;;;;;;15.68;11.85;;;20.70;64.90;;;;;;5086600;28;20032;-40
2021/06/10 07:36:16;;;;;;;16.00;11.57;;;20.90;64.40;;;;;;5086777;28;20059;-40
2021/06/10 07:38:42;;;;;;;14.43;11.38;;;21.00;64.40;;;;;;5087788;28;20291;-39
2021/06/10 07:41:07;;;;;;;13.90;11.00;;;21.00;63.80;;;;;;5086799;28;20046;-40
2021/06/10 07:43:33;;;;;;;14.23;10.60;;;21.00;63.60;;;;;;5086308;28;20032;-40
2021/06/10 07:45:59;;;;;;;14.13;10.50;;;21.10;63.20;;;;;;5086246;28;20222;-40
2021/06/10 07:48:29;;;;;;;15.95;10.43;;;21.30;62.40;;;;;;5086210;28;20219;-40
2021/06/10 07:50:54;;;;;;;11.60;10.05;;;21.40;62.30;;;;;;5086790;28;20028;-40
2021/06/10 07:53:20;;;;;;;10.25;9.18;;;21.50;61.90;;;;;;5086397;28;20039;-39
2021/06/10 07:55:46;;;;;;;11.77;9.95;;;21.60;61.60;;;;;;5086449;28;20040;-39
2021/06/10 07:58:11;;;;;;;12.30;9.65;;;21.70;60.70;;;;;;5084957;28;20032;-39
2021/06/10 08:00:37;;;;;;;16.45;9.55;;;22.00;61.00;;;;;;5085963;28;20375;-39
2021/06/10 08:03:03;;;;;;;10.57;9.48;;;22.30;60.90;;;;;;5086987;28;20366;-39
2021/06/10 08:05:29;;;;;;;13.18;9.40;;;22.40;61.30;;;;;;5086446;28;20052;-40
2021/06/10 08:07:55;;;;;;;11.00;9.75;;;22.30;60.20;;;;;;5085988;28;20036;-39
2021/06/10 08:10:21;;;;;;;10.40;9.00;;;22.50;60.10;;;;;;5086353;28;20032;-39
2021/06/10 08:12:47;;;;;;;13.40;9.55;;;22.50;60.20;;;;;;5085600;28;20044;-39
2021/06/10 08:15:13;;;;;;;11.63;9.45;;;22.50;59.30;;;;;;5085736;28;20115;-39
2021/06/10 08:17:38;;;;;;;13.25;9.55;;;22.70;58.80;;;;;;5086113;28;20082;-39
2021/06/10 08:20:05;;;;;;;14.45;9.13;;;22.70;60.00;;;;;;5086213;28;20029;-39
2021/06/10 08:22:30;;;;;;;10.30;8.60;;;22.60;59.60;;;;;;5085873;28;20036;-39
2021/06/10 08:24:56;;;;;;;10.73;9.05;;;22.50;59.80;;;;;;5085488;28;20097;-39
2021/06/10 08:27:21;;;;;;;9.85;8.63;;;22.40;59.50;;;;;;5085742;28;20063;-39
2021/06/10 08:29:47;;;;;;;11.00;9.05;;;22.40;58.70;;;;;;5086156;28;20028;-39
2021/06/10 08:32:12;;;;;;;13.15;9.13;;;22.60;59.00;;;;;;5085902;28;20096;-40
2021/06/10 08:34:38;;;;;;;10.15;8.90;;;22.80;59.80;;;;;;5084516;28;20044;-40
2021/06/10 08:37:04;;;;;;;10.68;8.98;;;22.90;60.10;;;;;;5085341;28;20335;-39
2021/06/10 08:39:29;;;;;;;9.60;8.60;;;23.10;60.60;;;;;;5085229;28;20258;-40
2021/06/10 08:41:55;;;;;;;11.98;9.38;;;23.00;59.20;;;;;;5085871;28;20328;-40
2021/06/10 08:44:22;;;;;;;12.55;9.30;;;22.90;58.50;;;;;;5084353;28;20346;-39
2021/06/10 08:46:48;;;;;;;13.07;9.50;;;22.70;57.20;;;;;;5085040;28;20040;-40
2021/06/10 08:49:14;;;;;;;11.10;9.55;;;22.60;57.40;;;;;;5067194;28;20039;-40
2021/06/10 08:51:40;;;;;;;10.23;8.23;;;22.80;57.90;;;;;;5085187;28;20031;-39
2021/06/10 08:54:05;;;;;;;11.05;9.43;;;22.90;57.70;;;;;;5085423;28;20032;-40
2021/06/10 08:56:32;;;;;;;10.32;9.02;;;22.90;56.60;;;;;;5084131;28;20032;-40
2021/06/10 08:58:58;;;;;;;10.90;9.40;;;23.00;58.80;;;;;;5085416;28;20093;-40
2021/06/10 09:01:24;;;;;;;10.90;9.38;;;23.30;59.70;;;;;;5085377;28;20039;-40
2021/06/10 09:03:49;;;;;;;12.32;9.02;;;23.50;55.60;;;;;;5084914;28;20063;-39
2021/06/10 09:06:19;;;;;;;11.10;9.20;;;23.70;56.90;;;;;;5084829;28;20037;-40
2021/06/10 09:08:48;;;;;;;11.02;9.05;;;23.80;56.40;;;;;;5086022;28;20319;-40
2021/06/10 09:11:19;;;;;;;11.32;8.82;;;23.60;53.00;;;;;;5084976;28;20094;-40
2021/06/10 09:13:57;;;;;;;8.48;7.63;;;23.40;53.90;;;;;;5084414;28;20049;-40
2021/06/10 09:16:33;;;;;;;11.00;8.70;;;23.50;55.80;;;;;;5083499;28;20033;-39
2021/06/10 09:19:02;;;;;;;11.73;9.23;;;23.50;55.10;;;;;;5082771;28;20032;-39
2021/06/10 09:21:42;;;;;;;10.10;8.57;;;23.30;55.00;;;;;;5084733;28;20052;-39
2021/06/10 09:24:18;;;;;;;10.45;8.27;;;23.30;55.10;;;;;;5084734;28;20032;-40
2021/06/10 09:26:45;;;;;;;12.77;8.90;;;23.30;56.00;;;;;;5084978;28;20181;-40
2021/06/10 09:29:11;;;;;;;9.95;8.57;;;23.20;56.20;;;;;;5084501;28;20032;-40
2021/06/10 09:31:37;;;;;;;10.80;8.65;;;23.20;56.70;;;;;;5084590;28;20135;-39
2021/06/10 09:34:08;;;;;;;12.48;9.07;;;23.20;57.30;;;;;;5082870;28;20033;-39
2021/06/10 09:36:43;;;;;;;9.55;8.55;;;23.20;56.50;;;;;;5083867;28;20080;-40
2021/06/10 09:39:17;;;;;;;9.48;8.40;;;23.60;55.70;;;;;;5084934;28;20052;-39
2021/06/10 09:42:08;;;;;;;10.40;8.75;;;23.80;55.70;;;;;;5083224;28;20028;-40
2021/06/10 09:44:44;;;;;;;9.38;7.45;;;24.20;55.00;;;;;;5084427;28;20032;-40
2021/06/10 09:47:10;;;;;;;9.13;8.00;;;24.30;52.30;;;;;;5084422;28;20324;-42
2021/06/10 09:49:35;;;;;;;11.55;8.05;;;24.40;54.00;;;;;;5084030;28;20039;-44
2021/06/10 09:52:04;;;;;;;16.95;8.63;;;24.80;52.20;;;;;;5082785;28;20028;-46
2021/06/10 09:54:47;;;;;;;72.65;20.02;;;25.20;51.20;;;;;;5083735;28;20055;-46
2021/06/10 09:57:14;;;;;;;133.52;19.92;;;23.70;85.90;;;;;;5083651;28;20036;-45
2021/06/10 09:59:43;;;;;;;15.05;10.98;;;20.90;90.40;;;;;;5084419;28;20083;-49
2021/06/10 10:02:18;;;;;;;9.63;8.63;;;21.30;90.90;;;;;;5083740;28;20359;-50
2021/06/10 10:05:01;;;;;;;14.90;11.30;;;21.30;91.20;;;;;;5083683;28;20099;-48
2021/06/10 10:07:27;;;;;;;12.55;11.20;;;21.10;91.40;;;;;;5083606;28;20044;-50
2021/06/10 10:09:56;;;;;;;13.32;10.70;;;20.50;91.50;;;;;;5083652;28;20207;-48
2021/06/10 10:12:21;;;;;;;13.95;11.50;;;19.80;91.60;;;;;;5083575;28;20122;-50
2021/06/10 10:14:47;;;;;;;14.82;11.65;;;19.30;91.70;;;;;;5082813;28;20347;-51
2021/06/10 10:17:12;;;;;;;43.63;17.20;;;18.90;91.80;;;;;;5065936;28;20029;-43
2021/06/10 10:19:38;;;;;;;11.18;9.85;;;19.20;91.90;;;;;;5082642;28;20032;-45
2021/06/10 10:22:04;;;;;;;260.55;35.28;;;19.20;91.90;;;;;;5083529;28;20354;-46
2021/06/10 10:24:29;;;;;;;29.88;17.08;;;19.10;92.00;;;;;;5083255;28;20032;-55
2021/06/10 10:26:55;;;;;;;32.13;17.73;;;19.30;92.00;;;;;;5083112;28;20087;-44
2021/06/10 10:29:20;;;;;;;34.13;16.67;;;19.40;92.10;;;;;;5083256;28;20028;-54
2021/06/10 10:31:46;;;;;;;52.15;20.98;;;19.50;92.10;;;;;;5087866;28;20380;-53
2021/06/10 10:34:29;;;;;;;47.42;21.75;;;19.60;92.20;;;;;;5070213;28;20031;-47
2021/06/10 10:36:54;;;;;;;34.22;18.10;;;19.40;92.30;;;;;;5087562;28;20040;-52
2021/06/10 10:39:32;;;;;;;18.60;14.82;;;19.40;92.30;;;;;;5086379;28;20033;-45
2021/06/10 10:41:59;;;;;;;15.40;12.60;;;19.40;92.30;;;;;;5088324;28;20227;-47
2021/06/10 10:44:30;;;;;;;19.02;13.48;;;19.30;92.40;;;;;;5087785;28;20043;-46
2021/06/10 10:47:02;;;;;;;;;;;19.40;92.40;;;;;;5070850;28;20048;-45
2021/06/10 10:49:29;;;;;;;13.10;11.70;;;19.40;92.40;;;;;;5087550;28;19904;-46
2021/06/10 10:52:15;;;;;;;12.90;11.45;;;19.30;92.50;;;;;;5087586;28;20029;-45
2021/06/10 10:54:42;;;;;;;13.77;12.05;;;19.00;92.50;;;;;;5087132;28;20025;-51
2021/06/10 10:57:30;;;;;;;14.75;10.98;;;19.10;92.60;;;;;;5087491;28;20077;-49
2021/06/10 10:59:55;;;;;;;11.25;9.60;;;18.80;92.60;;;;;;5087461;28;20346;-48
2021/06/10 11:02:21;;;;;;;11.18;9.98;;;18.70;92.60;;;;;;5087404;28;20036;-48
2021/06/10 11:04:48;;;;;;;11.50;9.48;;;19.00;92.70;;;;;;5086847;28;20050;-49
2021/06/10 11:07:33;;;;;;;11.23;10.10;;;18.90;92.70;;;;;;5087057;28;20028;-48
2021/06/10 11:10:02;;;;;;;13.23;10.27;;;18.90;92.70;;;;;;5086904;28;20032;-47
2021/06/10 11:12:53;;;;;;;12.18;9.73;;;19.00;92.70;;;;;;5086626;28;20040;-51
2021/06/10 11:15:34;;;;;;;13.90;10.98;;;18.80;92.70;;;;;;5087068;28;20036;-51
2021/06/10 11:18:02;;;;;;;15.82;11.45;;;18.60;92.80;;;;;;5087339;28;20029;-51
2021/06/10 11:20:37;;;;;;;13.20;10.63;;;19.10;92.80;;;;;;5087170;28;20342;-48
2021/06/10 11:23:19;;;;;;;12.82;9.15;;;19.20;92.80;;;;;;5086960;28;20040;-48
2021/06/10 11:25:46;;;;;;;13.32;8.68;;;19.10;92.80;;;;;;5085736;28;20039;-46
2021/06/10 11:28:16;;;;;;;11.50;10.02;;;18.90;92.80;;;;;;5086782;28;20036;-44
2021/06/10 11:30:50;;;;;;;13.60;9.68;;;18.80;92.90;;;;;;5086866;28;20040;-48
2021/06/10 11:33:18;;;;;;;12.52;9.85;;;19.10;92.90;;;;;;5086410;28;20055;-46
2021/06/10 11:35:45;;;;;;;9.93;8.93;;;19.20;92.90;;;;;;5087375;28;20091;-44
2021/06/10 11:38:37;;;;;;;9.65;8.65;;;19.30;92.90;;;;;;5086973;28;20074;-44
2021/06/10 11:41:26;;;;;;;9.80;8.77;;;19.30;92.90;;;;;;5084756;28;20079;-45
2021/06/10 11:43:57;;;;;;;11.35;8.55;;;19.50;92.90;;;;;;5086584;28;20036;-46
2021/06/10 11:46:38;;;;;;;10.13;8.63;;;19.70;93.00;;;;;;5086673;28;20216;-48
2021/06/10 11:49:04;;;;;;;;;;;20.00;93.00;;;;;;5087093;28;20037;-47
2021/06/10 11:51:31;;;;;;;11.48;8.60;;;20.10;93.00;;;;;;5086579;28;19955;-46
2021/06/10 11:54:04;;;;;;;9.63;8.10;;;20.30;93.00;;;;;;5086804;28;20039;-46
2021/06/10 11:56:29;;;;;;;11.73;8.30;;;19.80;93.00;;;;;;5085583;28;20043;-45
2021/06/10 11:58:57;;;;;;;10.38;9.10;;;20.20;93.00;;;;;;5086294;28;20220;-44
2021/06/10 12:01:22;;;;;;;13.65;9.25;;;20.20;93.00;;;;;;5085877;28;20036;-47
2021/06/10 12:03:48;;;;;;;9.15;8.20;;;20.30;93.00;;;;;;5085952;28;20040;-49
2021/06/10 12:06:15;;;;;;;11.02;8.70;;;20.30;93.10;;;;;;5086086;28;20032;-46
2021/06/10 12:08:43;;;;;;;10.50;8.70;;;20.30;93.10;;;;;;5086337;28;20216;-48
2021/06/10 12:11:14;;;;;;;13.45;8.20;;;20.90;93.10;;;;;;5086004;28;20220;-50
2021/06/10 12:13:47;;;;;;;9.90;8.25;;;20.30;93.10;;;;;;5085672;28;20052;-46
2021/06/10 12:16:18;;;;;;;8.88;7.95;;;20.50;93.10;;;;;;5085856;28;20331;-49
2021/06/10 12:18:43;;;;;;;10.93;8.63;;;20.40;93.10;;;;;;5086026;28;20028;-46
2021/06/10 12:21:19;;;;;;;9.73;8.38;;;20.30;93.10;;;;;;5086042;28;20046;-48
2021/06/10 12:23:46;;;;;;;9.32;7.68;;;20.30;93.10;;;;;;5086106;28;20032;-45
2021/06/10 12:26:16;;;;;;;9.48;8.50;;;20.20;93.10;;;;;;5084892;28;20039;-47
2021/06/10 12:28:44;;;;;;;9.15;7.88;;;20.30;93.10;;;;;;5085321;28;20040;-46
2021/06/10 12:31:17;;;;;;;9.95;7.57;;;20.10;93.10;;;;;;5085569;28;20320;-49
2021/06/10 12:33:47;;;;;;;10.52;7.80;;;20.30;93.10;;;;;;5085303;28;20051;-48
2021/06/10 12:36:17;;;;;;;;;;;20.50;93.10;;;;;;5085612;28;20086;-49
2021/06/10 12:38:43;;;;;;;9.00;7.10;;;20.90;93.20;;;;;;5085852;28;20224;-46
2021/06/10 12:41:21;;;;;;;9.38;7.13;;;21.30;93.20;;;;;;5084420;28;20096;-47